sensor_id;sensor_type;location;lat;lon;timestamp;pressure;altitude;pressure_sealevel;temperature;humidity
51926;BME280;37952;51.938;15.480;2023-04-03T00:02:41;100901.21;;;3.14;55.93
51926;BME280;37952;51.938;15.480;2023-04-03T00:05:46;100903.48;;;3.13;55.95
51926;BME280;37952;51.938;15.480;2023-04-03T00:08:49;100903.34;;;3.11;55.90
51926;BME280;37952;51.938;15.480;2023-04-03T00:15:11;100913.86;;;3.04;56.17
51926;BME280;37952;51.938;15.480;2023-04-03T00:18:14;100913.15;;;3.04;56.23
51926;BME280;37952;51.938;15.480;2023-04-03T00:21:17;100914.23;;;3.02;56.19
51926;BME280;37952;51.938;15.480;2023-04-03T00:24:20;100914.26;;;3.00;56.26
51926;BME280;37952;51.938;15.480;2023-04-03T00:27:22;100918.11;;;2.96;56.22
51926;BME280;37952;51.938;15.480;2023-04-03T00:30:25;100917.10;;;2.94;56.27
51926;BME280;37952;51.938;15.480;2023-04-03T00:33:28;100917.83;;;2.90;56.38
51926;BME280;37952;51.938;15.480;2023-04-03T00:36:31;100917.52;;;2.88;56.45
51926;BME280;37952;51.938;15.480;2023-04-03T00:39:33;100914.75;;;2.85;56.51
51926;BME280;37952;51.938;15.480;2023-04-03T00:42:37;100911.99;;;2.82;56.53
51926;BME280;37952;51.938;15.480;2023-04-03T00:45:47;100912.56;;;2.76;56.48
51926;BME280;37952;51.938;15.480;2023-04-03T00:48:50;100914.00;;;2.71;56.66
51926;BME280;37952;51.938;15.480;2023-04-03T00:51:53;100914.91;;;2.67;56.73
51926;BME280;37952;51.938;15.480;2023-04-03T00:55:00;100912.84;;;2.65;56.75
51926;BME280;37952;51.938;15.480;2023-04-03T00:58:05;100916.69;;;2.64;56.78
51926;BME280;37952;51.938;15.480;2023-04-03T01:01:12;100922.79;;;2.63;56.84
51926;BME280;37952;51.938;15.480;2023-04-03T01:04:37;100922.30;;;2.61;56.89
51926;BME280;37952;51.938;15.480;2023-04-03T01:07:41;100922.47;;;2.59;56.95
51926;BME280;37952;51.938;15.480;2023-04-03T01:10:43;100921.44;;;2.57;56.96
51926;BME280;37952;51.938;15.480;2023-04-03T01:13:46;100926.51;;;2.55;57.03
51926;BME280;37952;51.938;15.480;2023-04-03T01:16:54;100920.60;;;2.54;57.05
51926;BME280;37952;51.938;15.480;2023-04-03T01:27:12;100923.33;;;2.40;57.18
51926;BME280;37952;51.938;15.480;2023-04-03T01:30:17;100923.17;;;2.38;57.27
51926;BME280;37952;51.938;15.480;2023-04-03T01:33:20;100923.36;;;2.34;57.28
51926;BME280;37952;51.938;15.480;2023-04-03T01:36:26;100923.05;;;2.32;57.39
51926;BME280;37952;51.938;15.480;2023-04-03T01:39:29;100925.14;;;2.30;57.42
51926;BME280;37952;51.938;15.480;2023-04-03T01:42:32;100928.98;;;2.30;57.55
51926;BME280;37952;51.938;15.480;2023-04-03T01:45:35;100927.94;;;2.29;57.55
51926;BME280;37952;51.938;15.480;2023-04-03T01:48:37;100935.09;;;2.28;57.48
51926;BME280;37952;51.938;15.480;2023-04-03T01:51:40;100934.23;;;2.23;57.51
51926;BME280;37952;51.938;15.480;2023-04-03T01:54:43;100934.27;;;2.19;57.59
51926;BME280;37952;51.938;15.480;2023-04-03T01:57:45;100936.55;;;2.15;57.69
51926;BME280;37952;51.938;15.480;2023-04-03T02:00:48;100935.70;;;2.14;57.77
51926;BME280;37952;51.938;15.480;2023-04-03T02:03:51;100935.01;;;2.12;57.83
51926;BME280;37952;51.938;15.480;2023-04-03T02:06:53;100937.80;;;2.11;57.86
51926;BME280;37952;51.938;15.480;2023-04-03T02:09:56;100941.64;;;2.09;57.86
51926;BME280;37952;51.938;15.480;2023-04-03T02:12:58;100943.73;;;2.09;57.91
51926;BME280;37952;51.938;15.480;2023-04-03T02:16:11;100941.65;;;2.08;57.93
51926;BME280;37952;51.938;15.480;2023-04-03T02:19:15;100947.92;;;2.07;58.04
51926;BME280;37952;51.938;15.480;2023-04-03T02:22:17;100947.58;;;2.04;58.08
51926;BME280;37952;51.938;15.480;2023-04-03T02:25:20;100946.21;;;2.02;58.03
51926;BME280;37952;51.938;15.480;2023-04-03T02:28:23;100955.28;;;1.97;58.08
51926;BME280;37952;51.938;15.480;2023-04-03T02:31:26;100955.13;;;1.91;58.23
51926;BME280;37952;51.938;15.480;2023-04-03T02:34:29;100956.73;;;1.86;58.24
51926;BME280;37952;51.938;15.480;2023-04-03T02:37:32;100955.34;;;1.83;58.34
51926;BME280;37952;51.938;15.480;2023-04-03T02:40:34;100963.87;;;1.80;58.47
51926;BME280;37952;51.938;15.480;2023-04-03T02:43:44;100964.59;;;1.78;58.46
51926;BME280;37952;51.938;15.480;2023-04-03T02:46:46;100966.16;;;1.76;58.53
51926;BME280;37952;51.938;15.480;2023-04-03T02:49:49;100970.17;;;1.72;58.66
51926;BME280;37952;51.938;15.480;2023-04-03T02:52:52;100967.91;;;1.73;58.56
51926;BME280;37952;51.938;15.480;2023-04-03T02:55:54;100973.13;;;1.72;58.55
51926;BME280;37952;51.938;15.480;2023-04-03T02:58:57;100969.66;;;1.68;58.56
51926;BME280;37952;51.938;15.480;2023-04-03T03:01:59;100974.21;;;1.63;58.64
51926;BME280;37952;51.938;15.480;2023-04-03T03:05:02;100974.59;;;1.56;58.67
51926;BME280;37952;51.938;15.480;2023-04-03T03:08:05;100975.27;;;1.54;58.83
51926;BME280;37952;51.938;15.480;2023-04-03T03:11:09;100969.55;;;1.55;58.86
51926;BME280;37952;51.938;15.480;2023-04-03T03:14:12;100976.14;;;1.54;58.91
51926;BME280;37952;51.938;15.480;2023-04-03T03:17:14;100977.38;;;1.49;58.86
51926;BME280;37952;51.938;15.480;2023-04-03T03:20:17;100972.54;;;1.44;58.89
51926;BME280;37952;51.938;15.480;2023-04-03T03:23:21;100976.55;;;1.40;58.97
51926;BME280;37952;51.938;15.480;2023-04-03T03:26:24;100977.27;;;1.33;59.07
51926;BME280;37952;51.938;15.480;2023-04-03T03:29:33;100979.18;;;1.30;59.26
51926;BME280;37952;51.938;15.480;2023-04-03T03:32:35;100981.09;;;1.30;59.21
51926;BME280;37952;51.938;15.480;2023-04-03T03:35:38;100985.42;;;1.28;59.35
51926;BME280;37952;51.938;15.480;2023-04-03T03:38:41;100990.48;;;1.27;59.36
51926;BME280;37952;51.938;15.480;2023-04-03T03:41:44;100992.56;;;1.27;59.40
51926;BME280;37952;51.938;15.480;2023-04-03T03:48:20;100992.40;;;1.21;59.48
51926;BME280;37952;51.938;15.480;2023-04-03T03:51:23;100993.10;;;1.22;59.54
51926;BME280;37952;51.938;15.480;2023-04-03T03:54:25;100990.84;;;1.23;59.55
51926;BME280;37952;51.938;15.480;2023-04-03T03:57:28;100990.48;;;1.23;59.61
51926;BME280;37952;51.938;15.480;2023-04-03T04:00:31;100988.77;;;1.19;59.59
51926;BME280;37952;51.938;15.480;2023-04-03T04:03:34;100992.59;;;1.16;59.65
51926;BME280;37952;51.938;15.480;2023-04-03T04:06:36;100989.98;;;1.14;59.80
51926;BME280;37952;51.938;15.480;2023-04-03T04:09:39;100994.50;;;1.10;59.84
51926;BME280;37952;51.938;15.480;2023-04-03T04:12:42;100988.26;;;1.03;59.86
51926;BME280;37952;51.938;15.480;2023-04-03T04:15:45;101001.09;;;1.08;59.87
51926;BME280;37952;51.938;15.480;2023-04-03T04:18:47;101001.10;;;1.07;59.90
51926;BME280;37952;51.938;15.480;2023-04-03T04:21:50;101004.76;;;1.06;59.93
51926;BME280;37952;51.938;15.480;2023-04-03T04:24:52;101007.02;;;1.06;59.97
51926;BME280;37952;51.938;15.480;2023-04-03T04:27:55;101014.31;;;1.04;59.89
51926;BME280;37952;51.938;15.480;2023-04-03T04:30:58;101016.55;;;1.02;60.02
51926;BME280;37952;51.938;15.480;2023-04-03T04:34:00;101016.38;;;0.99;60.03
51926;BME280;37952;51.938;15.480;2023-04-03T04:37:03;101021.27;;;0.95;60.12
51926;BME280;37952;51.938;15.480;2023-04-03T04:40:06;101024.02;;;0.91;60.20
51926;BME280;37952;51.938;15.480;2023-04-03T04:43:09;101023.69;;;0.90;60.35
51926;BME280;37952;51.938;15.480;2023-04-03T04:46:13;101023.34;;;0.90;60.35
51926;BME280;37952;51.938;15.480;2023-04-03T04:49:15;101033.41;;;0.92;60.35
51926;BME280;37952;51.938;15.480;2023-04-03T04:52:18;101034.98;;;0.93;60.43
51926;BME280;37952;51.938;15.480;2023-04-03T04:55:21;101034.11;;;0.94;60.42
51926;BME280;37952;51.938;15.480;2023-04-03T04:58:23;101039.48;;;0.93;60.44
51926;BME280;37952;51.938;15.480;2023-04-03T05:01:26;101039.83;;;0.92;60.58
51926;BME280;37952;51.938;15.480;2023-04-03T05:04:29;101038.27;;;0.92;60.55
51926;BME280;37952;51.938;15.480;2023-04-03T05:07:31;101039.65;;;0.91;60.57
51926;BME280;37952;51.938;15.480;2023-04-03T05:10:34;101037.04;;;0.91;60.63
51926;BME280;37952;51.938;15.480;2023-04-03T05:13:37;101039.13;;;0.93;60.69
51926;BME280;37952;51.938;15.480;2023-04-03T05:16:39;101042.27;;;0.94;60.72
51926;BME280;37952;51.938;15.480;2023-04-03T05:19:42;101040.70;;;0.98;60.80
51926;BME280;37952;51.938;15.480;2023-04-03T05:22:46;101039.30;;;1.02;60.87
51926;BME280;37952;51.938;15.480;2023-04-03T05:25:48;101041.74;;;1.04;60.89
51926;BME280;37952;51.938;15.480;2023-04-03T05:28:51;101043.84;;;1.06;60.93
51926;BME280;37952;51.938;15.480;2023-04-03T05:31:54;101041.55;;;1.07;60.99
51926;BME280;37952;51.938;15.480;2023-04-03T05:34:56;101042.08;;;1.09;60.96
51926;BME280;37952;51.938;15.480;2023-04-03T05:38:02;101042.77;;;1.13;60.99
51926;BME280;37952;51.938;15.480;2023-04-03T05:41:05;101039.83;;;1.14;61.04
51926;BME280;37952;51.938;15.480;2023-04-03T05:44:08;101044.33;;;1.14;61.03
51926;BME280;37952;51.938;15.480;2023-04-03T05:47:10;101046.24;;;1.13;61.09
51926;BME280;37952;51.938;15.480;2023-04-03T05:50:14;101042.42;;;1.13;61.13
51926;BME280;37952;51.938;15.480;2023-04-03T05:53:22;101044.16;;;1.12;61.12
51926;BME280;37952;51.938;15.480;2023-04-03T05:56:27;101052.33;;;1.09;61.27
51926;BME280;37952;51.938;15.480;2023-04-03T05:59:30;101053.36;;;1.10;61.26
51926;BME280;37952;51.938;15.480;2023-04-03T06:02:38;101052.66;;;1.12;61.27
51926;BME280;37952;51.938;15.480;2023-04-03T06:05:41;101051.98;;;1.15;61.30
51926;BME280;37952;51.938;15.480;2023-04-03T06:08:44;101054.40;;;1.18;61.31
51926;BME280;37952;51.938;15.480;2023-04-03T06:11:46;101057.01;;;1.20;61.29
51926;BME280;37952;51.938;15.480;2023-04-03T06:14:49;101062.57;;;1.23;61.36
51926;BME280;37952;51.938;15.480;2023-04-03T06:17:52;101061.69;;;1.24;61.40
51926;BME280;37952;51.938;15.480;2023-04-03T06:20:55;101062.20;;;1.27;61.38
51926;BME280;37952;51.938;15.480;2023-04-03T06:23:57;101058.57;;;1.28;61.37
51926;BME280;37952;51.938;15.480;2023-04-03T06:27:00;101062.22;;;1.24;61.39
51926;BME280;37952;51.938;15.480;2023-04-03T06:30:04;101062.56;;;1.27;61.49
51926;BME280;37952;51.938;15.480;2023-04-03T06:33:07;101067.94;;;1.30;61.56
51926;BME280;37952;51.938;15.480;2023-04-03T06:36:11;101073.84;;;1.34;61.59
51926;BME280;37952;51.938;15.480;2023-04-03T06:39:17;101071.76;;;1.36;61.45
51926;BME280;37952;51.938;15.480;2023-04-03T06:42:23;101073.15;;;1.38;61.44
51926;BME280;37952;51.938;15.480;2023-04-03T06:45:26;101081.65;;;1.39;61.47
51926;BME280;37952;51.938;15.480;2023-04-03T06:48:30;101083.04;;;1.43;61.54
51926;BME280;37952;51.938;15.480;2023-04-03T06:51:33;101086.86;;;1.46;61.50
51926;BME280;37952;51.938;15.480;2023-04-03T06:54:36;101089.46;;;1.49;61.49
51926;BME280;37952;51.938;15.480;2023-04-03T06:57:39;101095.70;;;1.52;61.47
51926;BME280;37952;51.938;15.480;2023-04-03T07:00:42;101095.70;;;1.53;61.48
51926;BME280;37952;51.938;15.480;2023-04-03T07:03:46;101102.48;;;1.55;61.50
51926;BME280;37952;51.938;15.480;2023-04-03T07:06:50;101102.13;;;1.59;61.52
51926;BME280;37952;51.938;15.480;2023-04-03T07:09:53;101104.73;;;1.64;61.50
51926;BME280;37952;51.938;15.480;2023-04-03T07:12:56;101108.55;;;1.65;61.49
51926;BME280;37952;51.938;15.480;2023-04-03T07:15:58;101111.85;;;1.66;61.48
51926;BME280;37952;51.938;15.480;2023-04-03T07:19:02;101114.28;;;1.68;61.58
51926;BME280;37952;51.938;15.480;2023-04-03T07:22:09;101118.45;;;1.73;61.52
51926;BME280;37952;51.938;15.480;2023-04-03T07:25:13;101121.91;;;1.71;61.51
51926;BME280;37952;51.938;15.480;2023-04-03T07:28:17;101122.27;;;1.74;61.62
51926;BME280;37952;51.938;15.480;2023-04-03T07:31:20;101122.09;;;1.79;61.73
51926;BME280;37952;51.938;15.480;2023-04-03T07:34:23;101124.48;;;1.87;61.71
51926;BME280;37952;51.938;15.480;2023-04-03T07:37:26;101129.70;;;1.93;61.63
51926;BME280;37952;51.938;15.480;2023-04-03T07:40:29;101130.72;;;1.98;61.62
51926;BME280;37952;51.938;15.480;2023-04-03T07:43:32;101132.98;;;2.05;61.64
51926;BME280;37952;51.938;15.480;2023-04-03T07:46:37;101132.78;;;2.08;61.62
51926;BME280;37952;51.938;15.480;2023-04-03T07:49:40;101127.73;;;2.11;61.63
51926;BME280;37952;51.938;15.480;2023-04-03T07:52:44;101130.67;;;2.15;61.61
51926;BME280;37952;51.938;15.480;2023-04-03T07:55:48;101133.62;;;2.20;61.63
51926;BME280;37952;51.938;15.480;2023-04-03T07:58:51;101133.59;;;2.28;61.64
51926;BME280;37952;51.938;15.480;2023-04-03T08:01:54;101130.23;;;2.37;61.58
51926;BME280;37952;51.938;15.480;2023-04-03T08:04:58;101130.36;;;2.48;61.64
51926;BME280;37952;51.938;15.480;2023-04-03T08:08:01;101133.45;;;2.55;61.50
51926;BME280;37952;51.938;15.480;2023-04-03T08:11:04;101132.55;;;2.63;61.49
51926;BME280;37952;51.938;15.480;2023-04-03T08:14:08;101131.66;;;2.68;61.28
51926;BME280;37952;51.938;15.480;2023-04-03T08:17:13;101135.27;;;2.74;61.44
51926;BME280;37952;51.938;15.480;2023-04-03T08:20:16;101135.90;;;2.83;61.33
51926;BME280;37952;51.938;15.480;2023-04-03T08:23:19;101134.61;;;2.96;61.27
51926;BME280;37952;51.938;15.480;2023-04-03T08:26:22;101125.48;;;3.05;60.93
51926;BME280;37952;51.938;15.480;2023-04-03T08:29:25;101132.23;;;3.13;60.86
51926;BME280;37952;51.938;15.480;2023-04-03T08:32:28;101125.20;;;3.19;60.58
51926;BME280;37952;51.938;15.480;2023-04-03T08:35:30;101125.73;;;3.20;60.34
51926;BME280;37952;51.938;15.480;2023-04-03T08:38:33;101126.95;;;3.19;60.21
51926;BME280;37952;51.938;15.480;2023-04-03T08:41:44;101130.79;;;3.18;60.23
51926;BME280;37952;51.938;15.480;2023-04-03T08:45:10;101130.77;;;3.21;59.77
51926;BME280;37952;51.938;15.480;2023-04-03T08:48:27;101133.39;;;3.19;59.53
51926;BME280;37952;51.938;15.480;2023-04-03T08:51:32;101135.67;;;3.18;59.78
51926;BME280;37952;51.938;15.480;2023-04-03T08:54:49;101134.93;;;3.23;59.66
51926;BME280;37952;51.938;15.480;2023-04-03T08:58:26;101136.64;;;3.30;59.74
51926;BME280;37952;51.938;15.480;2023-04-03T09:01:34;101134.98;;;3.38;59.60
51926;BME280;37952;51.938;15.480;2023-04-03T09:04:38;101134.05;;;3.47;59.56
51926;BME280;37952;51.938;15.480;2023-04-03T09:07:49;101136.58;;;3.56;59.32
51926;BME280;37952;51.938;15.480;2023-04-03T09:11:11;101132.34;;;3.62;59.32
51926;BME280;37952;51.938;15.480;2023-04-03T09:14:39;101130.89;;;3.67;58.95
51926;BME280;37952;51.938;15.480;2023-04-03T09:21:17;101129.65;;;3.69;58.84
51926;BME280;37952;51.938;15.480;2023-04-03T09:24:24;101128.25;;;3.71;58.52
51926;BME280;37952;51.938;15.480;2023-04-03T09:27:27;101133.13;;;3.71;57.88
51926;BME280;37952;51.938;15.480;2023-04-03T09:30:33;101137.33;;;3.69;57.45
51926;BME280;37952;51.938;15.480;2023-04-03T09:33:36;101138.48;;;3.74;57.73
51926;BME280;37952;51.938;15.480;2023-04-03T09:36:43;101140.02;;;3.78;57.79
51926;BME280;37952;51.938;15.480;2023-04-03T09:39:50;101136.16;;;3.81;57.75
51926;BME280;37952;51.938;15.480;2023-04-03T09:42:58;101135.25;;;3.85;57.70
51926;BME280;37952;51.938;15.480;2023-04-03T09:46:18;101133.27;;;3.90;57.72
51926;BME280;37952;51.938;15.480;2023-04-03T09:49:22;101136.02;;;3.96;57.49
51926;BME280;37952;51.938;15.480;2023-04-03T09:52:26;101132.81;;;4.01;57.38
51926;BME280;37952;51.938;15.480;2023-04-03T09:55:29;101129.86;;;4.00;56.33
51926;BME280;37952;51.938;15.480;2023-04-03T09:58:37;101139.10;;;4.01;56.53
51926;BME280;37952;51.938;15.480;2023-04-03T10:02:19;101136.09;;;4.04;55.91
51926;BME280;37952;51.938;15.480;2023-04-03T10:05:35;101132.85;;;4.12;56.38
51926;BME280;37952;51.938;15.480;2023-04-03T10:08:38;101135.02;;;4.22;56.68
51926;BME280;37952;51.938;15.480;2023-04-03T10:12:06;101133.67;;;4.31;56.66
51926;BME280;37952;51.938;15.480;2023-04-03T10:15:14;101126.39;;;4.42;56.73
51926;BME280;37952;51.938;15.480;2023-04-03T10:18:38;101125.25;;;4.48;56.12
51926;BME280;37952;51.938;15.480;2023-04-03T10:22:18;101118.42;;;4.49;56.06
51926;BME280;37952;51.938;15.480;2023-04-03T10:25:29;101122.48;;;4.47;55.93
51926;BME280;37952;51.938;15.480;2023-04-03T10:36:16;101118.66;;;4.46;55.58
51926;BME280;37952;51.938;15.480;2023-04-03T10:39:33;101115.38;;;4.43;53.46
51926;BME280;37952;51.938;15.480;2023-04-03T10:42:49;101116.55;;;4.48;55.06
51926;BME280;37952;51.938;15.480;2023-04-03T10:45:57;101114.79;;;4.61;55.17
51926;BME280;37952;51.938;15.480;2023-04-03T10:49:10;101109.23;;;4.72;55.14
51926;BME280;37952;51.938;15.480;2023-04-03T10:52:34;101106.48;;;4.79;54.56
51926;BME280;37952;51.938;15.480;2023-04-03T10:56:02;101103.39;;;4.87;55.28
51926;BME280;37952;51.938;15.480;2023-04-03T10:59:25;101102.50;;;4.89;55.35
51926;BME280;37952;51.938;15.480;2023-04-03T11:02:37;101094.95;;;4.92;54.43
51926;BME280;37952;51.938;15.480;2023-04-03T11:05:47;101097.82;;;4.98;54.75
51926;BME280;37952;51.938;15.480;2023-04-03T11:08:57;101093.98;;;5.09;54.92
51926;BME280;37952;51.938;15.480;2023-04-03T11:12:13;101090.25;;;5.13;53.58
51926;BME280;37952;51.938;15.480;2023-04-03T11:15:20;101090.25;;;5.02;52.06
51926;BME280;37952;51.938;15.480;2023-04-03T11:18:29;101090.64;;;4.99;53.56
51926;BME280;37952;51.938;15.480;2023-04-03T11:21:40;101085.39;;;5.11;53.80
51926;BME280;37952;51.938;15.480;2023-04-03T11:25:36;101088.76;;;5.19;53.75
51926;BME280;37952;51.938;15.480;2023-04-03T11:28:13;101085.61;;;5.18;52.98
51926;BME280;37952;51.938;15.480;2023-04-03T11:31:32;101079.70;;;5.16;52.16
51926;BME280;37952;51.938;15.480;2023-04-03T11:34:41;101078.20;;;5.12;52.79
51926;BME280;37952;51.938;15.480;2023-04-03T11:37:48;101079.86;;;4.96;50.22
51926;BME280;37952;51.938;15.480;2023-04-03T11:40:54;101083.56;;;4.95;52.09
51926;BME280;37952;51.938;15.480;2023-04-03T11:44:00;101078.11;;;5.07;52.12
51926;BME280;37952;51.938;15.480;2023-04-03T11:47:09;101082.46;;;5.19;52.43
51926;BME280;37952;51.938;15.480;2023-04-03T11:50:41;101076.70;;;5.29;53.06
51926;BME280;37952;51.938;15.480;2023-04-03T11:53:44;101069.02;;;5.38;51.95
51926;BME280;37952;51.938;15.480;2023-04-03T11:56:48;101065.08;;;5.44;52.39
51926;BME280;37952;51.938;15.480;2023-04-03T11:59:50;101069.43;;;5.54;51.98
51926;BME280;37952;51.938;15.480;2023-04-03T12:02:53;101067.02;;;5.52;52.40
51926;BME280;37952;51.938;15.480;2023-04-03T12:09:25;101069.05;;;5.65;52.40
51926;BME280;37952;51.938;15.480;2023-04-03T12:12:35;101066.08;;;5.74;52.19
51926;BME280;37952;51.938;15.480;2023-04-03T12:25:47;101066.08;;;5.65;51.92
51926;BME280;37952;51.938;15.480;2023-04-03T12:28:53;101065.83;;;5.87;52.20
51926;BME280;37952;51.938;15.480;2023-04-03T12:35:36;101066.82;;;5.90;51.17
51926;BME280;37952;51.938;15.480;2023-04-03T12:45:23;101054.55;;;5.91;51.64
51926;BME280;37952;51.938;15.480;2023-04-03T12:48:29;101054.30;;;6.22;51.58
51926;BME280;37952;51.938;15.480;2023-04-03T12:51:43;101050.53;;;6.42;51.16
51926;BME280;37952;51.938;15.480;2023-04-03T12:54:47;101049.98;;;6.59;50.76
51926;BME280;37952;51.938;15.480;2023-04-03T12:57:51;101049.61;;;6.60;49.40
51926;BME280;37952;51.938;15.480;2023-04-03T13:01:08;101046.23;;;6.47;49.16
51926;BME280;37952;51.938;15.480;2023-04-03T13:04:12;101049.79;;;6.28;49.17
51926;BME280;37952;51.938;15.480;2023-04-03T13:07:30;101054.63;;;6.23;49.39
51926;BME280;37952;51.938;15.480;2023-04-03T13:11:05;101050.91;;;6.08;49.48
51926;BME280;37952;51.938;15.480;2023-04-03T13:14:19;101051.56;;;6.19;48.85
51926;BME280;37952;51.938;15.480;2023-04-03T13:17:22;101042.83;;;6.34;49.09
51926;BME280;37952;51.938;15.480;2023-04-03T13:20:34;101039.21;;;6.47;48.73
51926;BME280;37952;51.938;15.480;2023-04-03T13:23:47;101043.67;;;6.51;48.48
51926;BME280;37952;51.938;15.480;2023-04-03T13:26:54;101042.01;;;6.47;48.43
51926;BME280;37952;51.938;15.480;2023-04-03T13:29:59;101045.74;;;6.45;48.36
51926;BME280;37952;51.938;15.480;2023-04-03T13:33:06;101042.30;;;6.49;48.91
51926;BME280;37952;51.938;15.480;2023-04-03T13:36:20;101039.52;;;6.56;48.95
51926;BME280;37952;51.938;15.480;2023-04-03T13:39:36;101034.25;;;6.64;48.94
51926;BME280;37952;51.938;15.480;2023-04-03T13:42:40;101033.45;;;6.69;48.45
51926;BME280;37952;51.938;15.480;2023-04-03T13:49:37;101027.85;;;6.91;49.20
51926;BME280;37952;51.938;15.480;2023-04-03T13:52:47;101022.33;;;6.87;48.18
51926;BME280;37952;51.938;15.480;2023-04-03T13:59:28;101026.54;;;6.65;48.80
51926;BME280;37952;51.938;15.480;2023-04-03T14:02:33;101021.61;;;6.66;48.72
51926;BME280;37952;51.938;15.480;2023-04-03T14:05:36;101015.45;;;6.82;48.57
51926;BME280;37952;51.938;15.480;2023-04-03T14:08:39;101009.86;;;7.02;47.60
51926;BME280;37952;51.938;15.480;2023-04-03T14:11:47;101002.02;;;7.14;44.04
51926;BME280;37952;51.938;15.480;2023-04-03T14:14:50;101001.69;;;7.27;45.55
51926;BME280;37952;51.938;15.480;2023-04-03T14:17:53;101002.75;;;7.32;46.94
51926;BME280;37952;51.938;15.480;2023-04-03T14:20:57;101011.31;;;7.27;46.93
51926;BME280;37952;51.938;15.480;2023-04-03T14:24:00;101009.67;;;7.16;46.90
51926;BME280;37952;51.938;15.480;2023-04-03T14:27:15;101012.05;;;7.12;47.40
51926;BME280;37952;51.938;15.480;2023-04-03T14:33:22;101010.13;;;7.32;46.51
51926;BME280;37952;51.938;15.480;2023-04-03T14:36:27;101005.31;;;7.48;46.95
51926;BME280;37952;51.938;15.480;2023-04-03T14:39:30;101008.89;;;7.45;47.01
51926;BME280;37952;51.938;15.480;2023-04-03T14:42:36;101007.55;;;7.37;47.61
51926;BME280;37952;51.938;15.480;2023-04-03T14:45:39;101004.39;;;7.44;47.88
51926;BME280;37952;51.938;15.480;2023-04-03T14:48:42;100999.89;;;7.67;47.42
51926;BME280;37952;51.938;15.480;2023-04-03T14:51:45;100994.09;;;7.97;47.53
51926;BME280;37952;51.938;15.480;2023-04-03T14:54:51;100991.98;;;8.33;47.48
51926;BME280;37952;51.938;15.480;2023-04-03T14:57:54;100988.19;;;8.53;46.98
51926;BME280;37952;51.938;15.480;2023-04-03T15:00:57;100977.59;;;8.38;41.65
51926;BME280;37952;51.938;15.480;2023-04-03T15:04:00;100987.54;;;8.17;43.25
51926;BME280;37952;51.938;15.480;2023-04-03T15:07:09;100988.35;;;8.13;45.35
51926;BME280;37952;51.938;15.480;2023-04-03T15:10:21;100988.77;;;8.11;45.38
51926;BME280;37952;51.938;15.480;2023-04-03T15:13:24;100989.96;;;8.06;45.25
51926;BME280;37952;51.938;15.480;2023-04-03T15:16:27;100986.88;;;7.92;45.50
51926;BME280;37952;51.938;15.480;2023-04-03T15:19:36;100985.17;;;7.78;45.67
51926;BME280;37952;51.938;15.480;2023-04-03T15:22:40;100986.45;;;7.64;45.63
51926;BME280;37952;51.938;15.480;2023-04-03T15:25:47;100990.82;;;7.52;45.23
51926;BME280;37952;51.938;15.480;2023-04-03T15:28:51;100993.95;;;7.41;45.15
51926;BME280;37952;51.938;15.480;2023-04-03T15:31:54;100992.45;;;7.37;45.07
51926;BME280;37952;51.938;15.480;2023-04-03T15:34:57;100993.72;;;7.55;45.74
51926;BME280;37952;51.938;15.480;2023-04-03T15:37:59;100982.23;;;7.77;45.19
51926;BME280;37952;51.938;15.480;2023-04-03T15:41:02;100977.36;;;7.75;44.88
51926;BME280;37952;51.938;15.480;2023-04-03T15:44:05;100978.82;;;7.67;45.16
51926;BME280;37952;51.938;15.480;2023-04-03T15:47:07;100977.90;;;7.57;45.05
51926;BME280;37952;51.938;15.480;2023-04-03T15:50:10;100974.77;;;7.56;44.90
51926;BME280;37952;51.938;15.480;2023-04-03T15:53:14;100971.33;;;7.65;44.99
51926;BME280;37952;51.938;15.480;2023-04-03T15:56:17;100973.27;;;7.65;44.63
51926;BME280;37952;51.938;15.480;2023-04-03T15:59:27;100980.33;;;7.57;44.89
51926;BME280;37952;51.938;15.480;2023-04-03T16:02:38;100977.77;;;7.48;44.79
51926;BME280;37952;51.938;15.480;2023-04-03T16:05:40;100978.70;;;7.40;44.89
51926;BME280;37952;51.938;15.480;2023-04-03T16:08:44;100976.96;;;7.33;44.93
51926;BME280;37952;51.938;15.480;2023-04-03T16:11:47;100973.06;;;7.28;44.76
51926;BME280;37952;51.938;15.480;2023-04-03T16:14:50;100983.12;;;7.25;45.16
51926;BME280;37952;51.938;15.480;2023-04-03T16:17:53;100978.93;;;7.19;45.13
51926;BME280;37952;51.938;15.480;2023-04-03T16:20:57;100976.61;;;7.13;45.33
51926;BME280;37952;51.938;15.480;2023-04-03T16:24:00;100976.22;;;7.08;45.01
51926;BME280;37952;51.938;15.480;2023-04-03T16:27:04;100979.81;;;7.05;45.16
51926;BME280;37952;51.938;15.480;2023-04-03T16:30:07;100979.59;;;7.00;45.05
51926;BME280;37952;51.938;15.480;2023-04-03T16:33:12;100979.41;;;6.93;45.00
51926;BME280;37952;51.938;15.480;2023-04-03T16:36:15;100974.45;;;6.88;44.97
51926;BME280;37952;51.938;15.480;2023-04-03T16:39:18;100978.45;;;6.82;44.88
51926;BME280;37952;51.938;15.480;2023-04-03T16:42:21;100978.94;;;6.77;44.44
51926;BME280;37952;51.938;15.480;2023-04-03T16:45:24;100981.19;;;6.71;44.51
51926;BME280;37952;51.938;15.480;2023-04-03T16:48:28;100983.59;;;6.66;44.54
51926;BME280;37952;51.938;15.480;2023-04-03T16:51:31;100980.04;;;6.61;44.37
51926;BME280;37952;51.938;15.480;2023-04-03T16:54:34;100979.15;;;6.54;44.43
51926;BME280;37952;51.938;15.480;2023-04-03T16:57:37;100978.23;;;6.48;44.29
51926;BME280;37952;51.938;15.480;2023-04-03T17:00:41;100977.31;;;6.42;44.62
51926;BME280;37952;51.938;15.480;2023-04-03T17:03:44;100980.91;;;6.39;44.71
51926;BME280;37952;51.938;15.480;2023-04-03T17:06:49;100981.46;;;6.37;44.74
51926;BME280;37952;51.938;15.480;2023-04-03T17:09:52;100982.70;;;6.37;44.74
51926;BME280;37952;51.938;15.480;2023-04-03T17:12:56;100979.27;;;6.34;44.65